createdAt,value
2023-02-18T00:00:52.819Z,13.51
2023-02-18T00:03:55.346Z,13.59
2023-02-18T00:06:57.964Z,13.67
2023-02-18T00:10:00.674Z,13.63
2023-02-18T00:13:03.328Z,13.71
2023-02-18T00:16:08.979Z,13.80
2023-02-18T00:19:15.471Z,13.85
2023-02-18T00:22:17.999Z,13.82
2023-02-18T00:25:20.431Z,13.82
2023-02-18T00:28:22.914Z,13.92
2023-02-18T00:31:32.767Z,13.86
2023-02-18T00:34:36.924Z,13.86
2023-02-18T00:37:39.413Z,13.91
2023-02-18T00:40:42.605Z,13.82
2023-02-18T00:43:45.114Z,13.86
2023-02-18T00:46:49.819Z,13.93
2023-02-18T00:49:52.524Z,13.85
2023-02-18T00:52:55.264Z,13.82
2023-02-18T00:55:58.233Z,13.80
2023-02-18T00:59:00.851Z,13.80
2023-02-18T01:02:03.526Z,13.79
2023-02-18T01:05:06.193Z,13.79
2023-02-18T01:08:11.302Z,13.86
2023-02-18T01:11:14.174Z,13.85
2023-02-18T01:14:16.616Z,13.96
2023-02-18T01:17:19.778Z,13.95
2023-02-18T01:20:22.433Z,14.02
2023-02-18T01:23:24.916Z,14.00
2023-02-18T01:26:27.380Z,14.03
2023-02-18T01:29:29.947Z,13.99
2023-02-18T01:32:32.846Z,13.98
2023-02-18T01:35:38.584Z,14.11
2023-02-18T01:38:41.619Z,13.99
2023-02-18T01:41:44.058Z,14.02
2023-02-18T01:44:48.957Z,13.98
2023-02-18T01:47:51.426Z,13.89
2023-02-18T01:51:00.220Z,13.90
2023-02-18T01:54:08.679Z,13.88
2023-02-18T01:57:23.390Z,13.89
2023-02-18T02:00:26.272Z,13.96
2023-02-18T02:03:28.919Z,13.87
2023-02-18T02:06:31.806Z,13.81
2023-02-18T02:09:36.482Z,13.77
2023-02-18T02:13:10.917Z,13.67
2023-02-18T02:16:43.267Z,13.69
2023-02-18T02:20:11.989Z,13.67
2023-02-18T02:23:28.492Z,13.65
2023-02-18T02:26:59.249Z,13.60
2023-02-18T02:30:12.440Z,13.73
2023-02-18T02:33:41.494Z,13.72
2023-02-18T02:37:14.525Z,13.67
2023-02-18T02:40:34.975Z,13.74
2023-02-18T02:43:59.013Z,13.80
2023-02-18T02:47:10.713Z,13.69
2023-02-18T02:50:15.888Z,13.76
2023-02-18T02:53:28.519Z,13.77
2023-02-18T02:56:31.095Z,13.79
2023-02-18T02:59:36.941Z,13.76
2023-02-18T03:03:03.570Z,13.76
2023-02-18T03:06:24.078Z,13.79
2023-02-18T03:09:38.731Z,13.76
2023-02-18T03:12:54.931Z,13.67
2023-02-18T03:16:11.771Z,13.71
2023-02-18T03:19:33.388Z,13.79
2023-02-18T03:22:42.415Z,13.76
2023-02-18T03:25:45.123Z,13.82
2023-02-18T03:28:51.562Z,13.84
2023-02-18T03:31:57.981Z,13.86
2023-02-18T03:35:06.375Z,13.79
2023-02-18T03:38:22.258Z,13.83
2023-02-18T03:41:25.846Z,13.82
2023-02-18T03:44:30.760Z,13.84
2023-02-18T03:47:33.643Z,13.89
2023-02-18T03:50:36.231Z,13.90
2023-02-18T03:53:39.102Z,13.88
2023-02-18T03:56:42.645Z,13.82
2023-02-18T03:59:45.447Z,13.83
2023-02-18T04:02:48.064Z,13.84
2023-02-18T04:05:50.517Z,13.94
2023-02-18T04:08:52.987Z,13.88
2023-02-18T04:11:55.512Z,13.79
2023-02-18T04:14:58.021Z,13.70
2023-02-18T04:18:00.955Z,13.72
2023-02-18T04:21:03.983Z,13.70
2023-02-18T04:24:06.567Z,13.64
2023-02-18T04:27:09.154Z,13.64
2023-02-18T04:30:12.805Z,13.60
2023-02-18T04:33:16.942Z,13.57
2023-02-18T04:36:19.442Z,13.57
2023-02-18T04:39:22.276Z,13.48
2023-02-18T04:42:24.735Z,13.48
2023-02-18T04:45:27.912Z,13.43
2023-02-18T04:48:30.683Z,13.46
2023-02-18T04:51:33.997Z,13.31
2023-02-18T04:54:36.504Z,13.25
2023-02-18T04:57:38.997Z,13.23
2023-02-18T05:00:41.573Z,13.22
2023-02-18T05:03:46.116Z,13.16
2023-02-18T05:06:48.742Z,13.16
2023-02-18T05:09:51.218Z,13.06
2023-02-18T05:12:53.728Z,12.97
2023-02-18T05:15:56.222Z,12.91
2023-02-18T05:18:58.900Z,12.89
2023-02-18T05:22:01.365Z,12.83
2023-02-18T05:25:04.316Z,12.76
2023-02-18T05:28:06.955Z,12.85
2023-02-18T05:31:09.790Z,12.81
2023-02-18T05:34:12.360Z,12.79
2023-02-18T05:37:14.917Z,12.72
2023-02-18T05:40:17.554Z,12.72
2023-02-18T05:43:20.098Z,12.65
2023-02-18T05:46:22.899Z,12.62
2023-02-18T05:49:25.583Z,12.56
2023-02-18T05:52:28.255Z,12.55
2023-02-18T05:55:30.779Z,12.52
2023-02-18T05:58:33.414Z,12.45
2023-02-18T06:01:35.999Z,12.41
2023-02-18T06:04:39.288Z,12.41
2023-02-18T06:07:41.842Z,12.40
2023-02-18T06:10:44.406Z,12.40
2023-02-18T06:13:47.081Z,12.40
2023-02-18T06:16:49.631Z,12.36
2023-02-18T06:19:52.212Z,12.36
2023-02-18T06:22:54.730Z,12.38
2023-02-18T06:25:57.370Z,12.48
2023-02-18T06:28:59.997Z,12.48
2023-02-18T06:32:02.721Z,12.47
2023-02-18T06:35:05.502Z,12.42
2023-02-18T06:38:07.974Z,12.45
2023-02-18T06:41:11.628Z,12.47
2023-02-18T06:44:16.978Z,12.47
2023-02-18T06:47:19.545Z,12.55
2023-02-18T06:50:22.097Z,12.54
2023-02-18T06:53:24.587Z,12.52
2023-02-18T06:56:27.135Z,12.52
2023-02-18T06:59:29.719Z,12.55
2023-02-18T07:02:32.248Z,12.66
2023-02-18T07:05:35.214Z,12.71
2023-02-18T07:08:39.164Z,12.88
2023-02-18T07:11:42.154Z,12.85
2023-02-18T07:14:44.712Z,12.87
2023-02-18T07:17:47.192Z,12.86
2023-02-18T07:20:49.686Z,12.91
2023-02-18T07:23:52.374Z,12.91
2023-02-18T07:26:54.996Z,12.93
2023-02-18T07:29:57.721Z,12.94
2023-02-18T07:33:01.876Z,12.92
2023-02-18T07:36:06.649Z,12.86
2023-02-18T07:39:09.252Z,12.86
2023-02-18T07:42:13.345Z,12.82
2023-02-18T07:45:16.617Z,12.87
2023-02-18T07:48:19.532Z,12.88
2023-02-18T07:51:21.987Z,12.88
2023-02-18T07:54:24.852Z,13.01
2023-02-18T07:57:27.412Z,13.17
2023-02-18T08:00:29.873Z,13.27
2023-02-18T08:03:34.719Z,13.51
2023-02-18T08:06:43.287Z,13.57
2023-02-18T08:09:46.011Z,13.74
2023-02-18T08:12:48.533Z,13.82
2023-02-18T08:15:51.110Z,13.76
2023-02-18T08:18:53.549Z,13.78
2023-02-18T08:21:56.154Z,13.83
2023-02-18T08:24:58.678Z,14.01
2023-02-18T08:28:01.227Z,14.02
2023-02-18T08:31:04.408Z,13.89
2023-02-18T08:34:06.986Z,14.02
2023-02-18T08:37:09.477Z,13.87
2023-02-18T08:40:12.710Z,13.89
2023-02-18T08:43:17.954Z,13.98
2023-02-18T08:46:33.401Z,13.96
2023-02-18T08:49:38.638Z,13.96
2023-02-18T08:52:41.344Z,14.02
2023-02-18T08:55:44.960Z,14.21
2023-02-18T08:58:47.691Z,13.99
2023-02-18T09:01:50.566Z,14.01
2023-02-18T09:04:53.522Z,14.43
2023-02-18T09:07:55.991Z,14.44
2023-02-18T09:11:01.140Z,14.50
2023-02-18T09:14:03.678Z,14.74
2023-02-18T09:17:06.092Z,14.66
2023-02-18T09:20:09.394Z,14.50
2023-02-18T09:23:11.971Z,14.29
2023-02-18T09:26:17.276Z,14.35
2023-02-18T09:29:20.363Z,14.35
2023-02-18T09:32:34.365Z,14.43
2023-02-18T09:35:44.192Z,14.56
2023-02-18T09:38:47.740Z,14.62
2023-02-18T09:41:57.807Z,14.77
2023-02-18T09:45:04.937Z,15.05
2023-02-18T09:48:09.819Z,15.08
2023-02-18T09:51:15.796Z,15.16
2023-02-18T09:54:20.177Z,15.16
2023-02-18T09:57:34.590Z,15.05
2023-02-18T10:00:44.439Z,15.03
2023-02-18T10:03:47.331Z,14.69
2023-02-18T10:06:53.514Z,14.58
2023-02-18T10:10:00.134Z,14.71
2023-02-18T10:13:04.347Z,14.62
2023-02-18T10:16:08.589Z,14.59
2023-02-18T10:19:46.388Z,14.56
2023-02-18T10:22:50.405Z,14.64
2023-02-18T10:25:53.015Z,14.44
2023-02-18T10:28:55.854Z,14.41
2023-02-18T10:32:22.039Z,14.56
2023-02-18T10:35:34.306Z,14.45
2023-02-18T10:38:56.951Z,14.17
2023-02-18T10:42:30.622Z,14.07
2023-02-18T10:45:49.950Z,14.20
2023-02-18T10:49:00.575Z,14.10
2023-02-18T10:52:05.399Z,14.29
2023-02-18T10:55:12.540Z,14.33
2023-02-18T10:58:31.384Z,14.29
2023-02-18T11:01:34.049Z,14.23
2023-02-18T11:04:42.515Z,14.00
2023-02-18T11:07:49.098Z,13.93
2023-02-18T11:10:52.852Z,13.86
2023-02-18T11:14:00.651Z,13.86
2023-02-18T11:17:37.838Z,13.91
2023-02-18T11:20:41.539Z,13.92
2023-02-18T11:23:49.964Z,14.01
2023-02-18T11:26:52.509Z,14.05
2023-02-18T11:30:02.397Z,14.14
2023-02-18T11:33:17.889Z,14.05
2023-02-18T11:36:32.247Z,13.86
2023-02-18T11:39:34.932Z,13.87
2023-02-18T11:42:37.703Z,13.92
2023-02-18T11:45:40.614Z,13.85
2023-02-18T11:48:43.350Z,13.75
2023-02-18T11:51:48.049Z,13.97
2023-02-18T11:54:59.795Z,14.00
2023-02-18T11:58:07.439Z,14.18
2023-02-18T12:01:25.235Z,14.28
2023-02-18T12:04:33.695Z,14.24
2023-02-18T12:07:49.484Z,14.16
2023-02-18T12:11:02.015Z,14.45
2023-02-18T12:14:13.149Z,14.73
2023-02-18T12:17:34.440Z,14.78
2023-02-18T12:20:54.759Z,14.76
2023-02-18T12:24:21.849Z,15.23
2023-02-18T12:27:56.402Z,15.24
2023-02-18T12:31:37.208Z,15.17
2023-02-18T12:34:53.799Z,15.26
2023-02-18T12:38:15.498Z,15.61
2023-02-18T12:41:20.933Z,15.64
2023-02-18T12:44:26.166Z,15.87
2023-02-18T12:48:19.288Z,15.68
2023-02-18T12:51:59.140Z,15.76
2023-02-18T12:55:35.680Z,15.56
2023-02-18T12:59:16.068Z,15.73
2023-02-18T13:02:37.335Z,15.89
2023-02-18T13:06:04.078Z,15.81
2023-02-18T13:09:24.319Z,15.82
2023-02-18T13:13:03.469Z,15.99
2023-02-18T13:16:11.943Z,16.20
2023-02-18T13:19:45.859Z,16.14
2023-02-18T13:22:50.530Z,16.15
2023-02-18T13:26:00.792Z,16.17
2023-02-18T13:29:20.761Z,16.58
2023-02-18T13:32:26.251Z,16.69
2023-02-18T13:35:54.755Z,17.10
2023-02-18T13:39:07.187Z,17.61
2023-02-18T13:42:18.732Z,16.91
2023-02-18T13:45:31.588Z,16.50
2023-02-18T13:48:50.814Z,16.48
2023-02-18T13:52:00.972Z,16.36
2023-02-18T13:55:04.123Z,16.34
2023-02-18T13:58:17.261Z,16.24
2023-02-18T14:01:47.994Z,16.06
2023-02-18T14:04:57.610Z,15.98
2023-02-18T14:08:13.912Z,16.04
2023-02-18T14:11:16.377Z,15.99
2023-02-18T14:14:27.820Z,15.94
2023-02-18T14:17:40.923Z,15.90
2023-02-18T14:20:51.547Z,15.78
2023-02-18T14:23:58.645Z,15.71
2023-02-18T14:27:14.966Z,15.61
2023-02-18T14:30:23.271Z,15.72
2023-02-18T14:33:26.668Z,15.62
2023-02-18T14:36:47.380Z,15.66
2023-02-18T14:40:24.968Z,15.71
2023-02-18T14:43:58.137Z,15.98
2023-02-18T14:47:07.194Z,15.88
2023-02-18T14:50:16.889Z,15.90
2023-02-18T14:53:22.998Z,16.25
2023-02-18T14:56:25.727Z,16.67
2023-02-18T14:59:34.959Z,16.99
2023-02-18T15:02:38.859Z,16.97
2023-02-18T15:05:42.594Z,17.06
2023-02-18T15:08:48.269Z,16.93
2023-02-18T15:11:57.792Z,16.86
2023-02-18T15:15:04.056Z,16.64
2023-02-18T15:18:20.632Z,16.20
2023-02-18T15:21:37.721Z,15.93
2023-02-18T15:24:40.506Z,15.85
2023-02-18T15:27:47.179Z,15.58
2023-02-18T15:30:49.877Z,15.44
2023-02-18T15:33:52.701Z,15.38
2023-02-18T15:36:56.851Z,15.32
2023-02-18T15:39:59.618Z,15.24
2023-02-18T15:43:05.820Z,15.20
2023-02-18T15:46:14.078Z,15.08
2023-02-18T15:49:22.537Z,14.96
2023-02-18T15:52:31.762Z,14.89
2023-02-18T15:55:37.075Z,14.76
2023-02-18T15:58:39.779Z,14.65
2023-02-18T16:01:42.802Z,14.56
2023-02-18T16:04:51.075Z,14.45
2023-02-18T16:07:58.769Z,14.37
2023-02-18T16:11:06.111Z,14.21
2023-02-18T16:14:31.691Z,14.09
2023-02-18T16:17:34.662Z,13.80
2023-02-18T16:20:38.768Z,13.55
2023-02-18T16:23:54.431Z,13.29
2023-02-18T16:26:58.951Z,13.06
2023-02-18T16:30:17.090Z,12.85
2023-02-18T16:33:19.981Z,12.60
2023-02-18T16:36:25.158Z,12.43
2023-02-18T16:39:34.036Z,12.28
2023-02-18T16:42:36.623Z,12.14
2023-02-18T16:45:42.425Z,12.03
2023-02-18T16:48:56.879Z,11.94
2023-02-18T16:52:05.674Z,11.85
2023-02-18T16:55:20.495Z,11.69
2023-02-18T16:58:23.214Z,11.65
2023-02-18T17:01:27.318Z,11.54
2023-02-18T17:04:29.864Z,11.47
2023-02-18T17:07:32.924Z,11.39
2023-02-18T17:10:37.238Z,11.33
2023-02-18T17:13:40.013Z,11.31
2023-02-18T17:16:42.564Z,11.30
2023-02-18T17:19:45.132Z,11.26
2023-02-18T17:22:47.685Z,11.23
2023-02-18T17:25:51.674Z,11.14
2023-02-18T17:28:56.187Z,11.07
2023-02-18T17:31:59.767Z,10.97
2023-02-18T17:35:02.604Z,10.87
2023-02-18T17:38:11.116Z,10.81
2023-02-18T17:41:14.071Z,10.80
2023-02-18T17:44:21.360Z,10.74
2023-02-18T17:47:23.992Z,10.70
2023-02-18T17:50:29.766Z,10.67
2023-02-18T17:53:32.487Z,10.60
2023-02-18T17:56:36.338Z,10.60
2023-02-18T17:59:38.893Z,10.58
2023-02-18T18:02:41.828Z,10.57
2023-02-18T18:05:48.969Z,10.58
2023-02-18T18:08:51.977Z,10.68
2023-02-18T18:11:54.969Z,10.72
2023-02-18T18:14:57.473Z,10.77
2023-02-18T18:18:00.708Z,10.84
2023-02-18T18:21:04.575Z,10.86
2023-02-18T18:24:13.548Z,10.88
2023-02-18T18:27:16.247Z,10.93
2023-02-18T18:30:24.597Z,10.93
2023-02-18T18:33:33.260Z,10.93
2023-02-18T18:36:35.890Z,10.91
2023-02-18T18:39:38.940Z,11.01
2023-02-18T18:42:42.058Z,11.00
2023-02-18T18:45:44.913Z,11.04
2023-02-18T18:48:47.744Z,10.95
2023-02-18T18:51:51.136Z,11.00
2023-02-18T18:54:53.853Z,11.14
2023-02-18T18:57:57.578Z,11.47
2023-02-18T19:01:03.013Z,11.63
2023-02-18T19:04:05.894Z,11.77
2023-02-18T19:07:08.787Z,11.97
2023-02-18T19:10:12.619Z,11.98
2023-02-18T19:13:22.505Z,12.00
2023-02-18T19:16:34.131Z,11.94
2023-02-18T19:19:37.184Z,11.89
2023-02-18T19:22:39.880Z,11.92
2023-02-18T19:25:42.967Z,11.91
2023-02-18T19:28:46.486Z,11.99
2023-02-18T19:31:50.732Z,12.04
2023-02-18T19:34:53.595Z,12.06
2023-02-18T19:37:57.273Z,12.05
2023-02-18T19:41:16.866Z,12.11
2023-02-18T19:44:19.445Z,12.09
2023-02-18T19:47:26.478Z,12.09
2023-02-18T19:50:33.446Z,12.19
2023-02-18T19:53:36.525Z,12.17
2023-02-18T19:56:39.273Z,12.14
2023-02-18T19:59:42.033Z,12.12
2023-02-18T20:02:45.548Z,12.18
2023-02-18T20:05:49.575Z,12.22
2023-02-18T20:08:55.070Z,12.23
2023-02-18T20:11:57.902Z,12.17
2023-02-18T20:15:00.681Z,12.10
2023-02-18T20:18:03.411Z,12.08
2023-02-18T20:21:06.276Z,12.09
2023-02-18T20:24:11.302Z,12.06
2023-02-18T20:27:14.296Z,12.01
2023-02-18T20:30:16.858Z,12.02
2023-02-18T20:33:20.496Z,12.04
2023-02-18T20:36:24.239Z,11.98
2023-02-18T20:39:27.075Z,11.99
2023-02-18T20:42:29.765Z,11.91
2023-02-18T20:45:32.823Z,11.90
2023-02-18T20:48:36.911Z,11.93
2023-02-18T20:51:40.063Z,11.87
2023-02-18T20:54:42.986Z,11.84
2023-02-18T20:57:45.723Z,11.78
2023-02-18T21:00:59.154Z,11.68
2023-02-18T21:04:01.769Z,11.60
2023-02-18T21:07:04.197Z,11.67
2023-02-18T21:10:06.955Z,11.68
2023-02-18T21:13:14.957Z,11.82
2023-02-18T21:16:18.647Z,11.96
2023-02-18T21:19:21.986Z,12.04
2023-02-18T21:22:24.943Z,12.55
2023-02-18T21:25:27.476Z,12.81
2023-02-18T21:28:30.145Z,13.19
2023-02-18T21:31:39.557Z,13.32
2023-02-18T21:34:42.159Z,13.27
2023-02-18T21:37:44.672Z,13.35
2023-02-18T21:40:48.276Z,13.34
2023-02-18T21:43:51.687Z,13.47
2023-02-18T21:46:54.322Z,13.60
2023-02-18T21:49:57.104Z,13.50
2023-02-18T21:53:04.020Z,13.50
2023-02-18T21:56:11.215Z,13.38
2023-02-18T21:59:13.746Z,13.31
2023-02-18T22:02:19.197Z,13.29
2023-02-18T22:05:25.662Z,13.26
2023-02-18T22:08:28.708Z,13.31
2023-02-18T22:11:33.433Z,13.08
2023-02-18T22:14:35.957Z,12.98
2023-02-18T22:17:38.397Z,12.95
2023-02-18T22:20:40.988Z,12.86
2023-02-18T22:23:43.735Z,12.72
2023-02-18T22:26:46.961Z,12.73
2023-02-18T22:29:54.190Z,12.66
2023-02-18T22:32:56.794Z,12.56
2023-02-18T22:36:03.560Z,12.35
2023-02-18T22:39:06.809Z,12.38
2023-02-18T22:42:09.367Z,12.37
2023-02-18T22:45:11.814Z,12.15
2023-02-18T22:48:14.505Z,12.07
2023-02-18T22:51:40.677Z,12.08
2023-02-18T22:54:43.377Z,11.87
2023-02-18T22:57:45.854Z,11.94
2023-02-18T23:00:48.379Z,11.95
2023-02-18T23:03:52.149Z,11.95
2023-02-18T23:06:56.188Z,12.00
2023-02-18T23:09:59.409Z,11.94
2023-02-18T23:13:02.107Z,11.79
2023-02-18T23:16:08.376Z,11.76
2023-02-18T23:19:14.250Z,11.86
2023-02-18T23:22:30.500Z,11.83
2023-02-18T23:25:33.021Z,11.71
2023-02-18T23:28:47.668Z,11.67
2023-02-18T23:31:50.225Z,11.60
2023-02-18T23:34:52.717Z,11.60
2023-02-18T23:38:04.838Z,11.42
2023-02-18T23:41:08.573Z,11.32
2023-02-18T23:44:14.881Z,11.38
2023-02-18T23:47:17.407Z,11.34
2023-02-18T23:50:22.187Z,11.36
2023-02-18T23:53:26.482Z,11.50
2023-02-18T23:56:29.022Z,11.35
2023-02-18T23:59:31.444Z,11.35
